createdAt,value
2022-08-02T00:00:10.143Z,98774.16
2022-08-02T00:02:36.685Z,98767.19
2022-08-02T00:05:03.299Z,98766.41
2022-08-02T00:07:29.797Z,98769.31
2022-08-02T00:09:56.305Z,98769.84
2022-08-02T00:12:22.862Z,98770.91
2022-08-02T00:14:49.389Z,98771.16
2022-08-02T00:17:15.897Z,98772.16
2022-08-02T00:19:42.445Z,98770.31
2022-08-02T00:22:09.278Z,98765.22
2022-08-02T00:24:36.003Z,98769.72
2022-08-02T00:27:09.473Z,98772.66
2022-08-02T00:29:36.892Z,98775.75
2022-08-02T00:32:18.468Z,98778.66
2022-08-02T00:34:44.986Z,98780.28
2022-08-02T00:37:11.489Z,98777.63
2022-08-02T00:39:38.018Z,98781.59
2022-08-02T00:42:04.637Z,98779.72
2022-08-02T00:44:31.149Z,98781.00
2022-08-02T00:46:57.670Z,98781.59
2022-08-02T00:49:24.213Z,98784.47
2022-08-02T00:51:51.036Z,98777.53
2022-08-02T00:54:17.909Z,98777.53
2022-08-02T00:56:49.532Z,98774.09
2022-08-02T00:59:17.576Z,98774.09
2022-08-02T01:01:57.233Z,98776.75
2022-08-02T01:04:30.576Z,98775.13
2022-08-02T01:06:58.764Z,98770.63
2022-08-02T01:09:25.436Z,98779.41
2022-08-02T01:11:51.955Z,98777.81
2022-08-02T01:14:18.505Z,98775.38
2022-08-02T01:16:48.392Z,98778.53
2022-08-02T01:19:47.155Z,98766.28
2022-08-02T01:22:19.369Z,98774.28
2022-08-02T01:25:19.029Z,98773.69
2022-08-02T01:28:00.677Z,98767.81
2022-08-02T01:30:27.231Z,98772.34
2022-08-02T01:32:55.491Z,98770.69
2022-08-02T01:35:28.507Z,98767.81
2022-08-02T01:38:16.854Z,98756.31
2022-08-02T01:40:44.599Z,98758.72
2022-08-02T01:43:12.273Z,98768.28
2022-08-02T01:45:40.232Z,98766.69
2022-08-02T01:48:07.181Z,98766.38
2022-08-02T01:50:34.974Z,98762.66
2022-08-02T01:53:03.777Z,98765.09
2022-08-02T01:55:56.670Z,98768.56
2022-08-02T01:58:20.854Z,98771.22
2022-08-02T02:00:47.543Z,98772.28
2022-08-02T02:03:17.910Z,98769.84
2022-08-02T02:05:44.600Z,98768.22
2022-08-02T02:08:11.099Z,98771.94
2022-08-02T02:10:38.649Z,98756.22
2022-08-02T02:13:07.032Z,98758.78
2022-08-02T02:15:36.316Z,98762.84
2022-08-02T02:18:11.032Z,98772.66
2022-08-02T02:20:38.650Z,98760.66
2022-08-02T02:23:05.149Z,98764.38
2022-08-02T02:25:36.355Z,98768.06
2022-08-02T02:28:13.462Z,98763.81
2022-08-02T02:30:41.772Z,98767.28
2022-08-02T02:33:08.291Z,98756.63
2022-08-02T02:35:36.859Z,98764.63
2022-08-02T02:38:05.521Z,98747.03
2022-08-02T02:40:32.105Z,98742.75
2022-08-02T02:42:59.854Z,98744.88
2022-08-02T02:45:26.365Z,98729.72
2022-08-02T02:47:52.929Z,98733.44
2022-08-02T02:50:19.970Z,98730.53
2022-08-02T02:52:46.501Z,98733.97
2022-08-02T02:55:13.049Z,98725.75
2022-08-02T02:57:39.568Z,98727.59
2022-08-02T03:00:08.700Z,98729.47
2022-08-02T03:02:35.751Z,98726.25
2022-08-02T03:05:02.888Z,98726.00
2022-08-02T03:07:29.452Z,98729.72
2022-08-02T03:09:55.943Z,98719.34
2022-08-02T03:12:30.566Z,98718.75
2022-08-02T03:15:00.040Z,98716.59
2022-08-02T03:17:26.637Z,98721.66
2022-08-02T03:19:53.148Z,98721.09
2022-08-02T03:22:19.697Z,98714.97
2022-08-02T03:24:46.206Z,98720.53
2022-08-02T03:27:12.713Z,98713.38
2022-08-02T03:29:39.210Z,98716.84
2022-08-02T03:32:05.848Z,98718.44
2022-08-02T03:34:32.350Z,98715.72
2022-08-02T03:36:58.874Z,98719.16
2022-08-02T03:39:25.369Z,98718.94
2022-08-02T03:41:51.931Z,98715.22
2022-08-02T03:44:18.433Z,98720.53
2022-08-02T03:46:44.961Z,98720.53
2022-08-02T03:49:11.484Z,98722.41
2022-08-02T03:51:38.097Z,98716.03
2022-08-02T03:54:04.603Z,98720.53
2022-08-02T03:56:31.119Z,98722.16
2022-08-02T03:59:11.556Z,98725.13
2022-08-02T04:01:38.167Z,98723.28
2022-08-02T04:04:05.608Z,98725.94
2022-08-02T04:06:32.117Z,98731.59
2022-08-02T04:08:58.646Z,98731.59
2022-08-02T04:11:31.039Z,98725.47
2022-08-02T04:14:02.349Z,98732.38
2022-08-02T04:16:50.286Z,98734.78
2022-08-02T04:19:38.369Z,98731.31
2022-08-02T04:22:05.109Z,98731.84
2022-08-02T04:24:34.699Z,98733.91
2022-08-02T04:27:19.135Z,98725.13
2022-08-02T04:29:47.163Z,98728.59
2022-08-02T04:32:14.157Z,98734.72
2022-08-02T04:34:41.028Z,98726.75
2022-08-02T04:37:07.538Z,98735.50
2022-08-02T04:39:34.283Z,98727.78
2022-08-02T04:42:00.772Z,98741.09
2022-08-02T04:44:27.295Z,98742.47
2022-08-02T04:46:54.594Z,98738.25
2022-08-02T04:49:21.165Z,98734.25
2022-08-02T04:51:47.715Z,98736.91
2022-08-02T04:54:14.248Z,98740.69
2022-08-02T04:56:40.787Z,98744.16
2022-08-02T04:59:07.328Z,98739.78
2022-08-02T05:01:34.881Z,98741.75
2022-08-02T05:04:01.621Z,98739.97
2022-08-02T05:06:28.117Z,98733.13
2022-08-02T05:08:54.633Z,98735.56
2022-08-02T05:11:22.287Z,98736.91
2022-08-02T05:13:58.667Z,98742.56
2022-08-02T05:16:31.422Z,98738.91
2022-08-02T05:18:59.636Z,98737.38
2022-08-02T05:21:26.194Z,98740.84
2022-08-02T05:23:52.762Z,98740.28
2022-08-02T05:26:19.308Z,98748.50
2022-08-02T05:28:45.818Z,98747.69
2022-08-02T05:31:13.146Z,98749.56
2022-08-02T05:33:40.064Z,98746.66
2022-08-02T05:36:06.907Z,98744.13
2022-08-02T05:38:36.950Z,98740.16
2022-08-02T05:41:03.972Z,98742.34
2022-08-02T05:43:30.489Z,98751.97
2022-08-02T05:45:57.044Z,98752.31
2022-08-02T05:48:27.633Z,98749.91
2022-08-02T05:51:00.802Z,98752.63
2022-08-02T05:53:37.894Z,98753.91
2022-08-02T05:56:15.371Z,98749.16
2022-08-02T05:59:04.323Z,98751.66
2022-08-02T06:01:39.985Z,98758.09
2022-08-02T06:04:08.254Z,98752.28
2022-08-02T06:06:35.093Z,98753.94
2022-08-02T06:09:09.080Z,98762.53
2022-08-02T06:11:39.665Z,98770.56
2022-08-02T06:14:07.014Z,98775.16
2022-08-02T06:16:37.641Z,98771.22
2022-08-02T06:19:09.108Z,98775.31
2022-08-02T06:22:35.179Z,98768.16
2022-08-02T06:24:22.103Z,98768.06
2022-08-02T06:26:52.556Z,98775.34
2022-08-02T06:29:19.152Z,98768.72
2022-08-02T06:31:46.098Z,98762.59
2022-08-02T06:34:12.605Z,98760.44
2022-08-02T06:36:46.434Z,98763.25
2022-08-02T06:39:19.385Z,98772.75
2022-08-02T06:41:45.913Z,98775.25
2022-08-02T06:44:45.922Z,98777.84
2022-08-02T06:47:11.946Z,98775.81
2022-08-02T06:49:51.914Z,98780.97
2022-08-02T06:52:33.011Z,98783.31
2022-08-02T06:55:00.396Z,98786.47
2022-08-02T06:57:27.961Z,98784.84
2022-08-02T06:59:54.478Z,98775.81
2022-08-02T07:02:21.028Z,98770.00
2022-08-02T07:04:47.587Z,98774.38
2022-08-02T07:07:14.129Z,98771.31
2022-08-02T07:09:56.588Z,98767.75
2022-08-02T07:12:27.149Z,98750.59
2022-08-02T07:14:53.682Z,98754.63
2022-08-02T07:17:20.255Z,98757.03
2022-08-02T07:19:46.748Z,98745.59
2022-08-02T07:22:13.578Z,98754.84
2022-08-02T07:24:40.772Z,98750.91
2022-08-02T07:27:12.062Z,98746.41
2022-08-02T07:29:45.960Z,98747.69
2022-08-02T07:32:15.653Z,98743.28
2022-08-02T07:34:42.745Z,98741.22
2022-08-02T07:37:25.620Z,98735.75
2022-08-02T07:39:59.400Z,98722.28
2022-08-02T07:42:25.955Z,98729.25
2022-08-02T07:44:52.501Z,98731.47
2022-08-02T07:47:19.059Z,98731.84
2022-08-02T07:49:45.559Z,98735.56
2022-08-02T07:52:12.425Z,98740.13
2022-08-02T07:54:39.244Z,98748.69
2022-08-02T07:57:05.741Z,98749.41
2022-08-02T07:59:32.264Z,98751.16
2022-08-02T08:01:58.961Z,98746.91
2022-08-02T08:04:25.489Z,98746.34
2022-08-02T08:06:52.751Z,98749.31
2022-08-02T08:09:19.710Z,98742.38
2022-08-02T08:11:46.299Z,98738.75
2022-08-02T08:14:16.699Z,98738.59
2022-08-02T08:16:43.681Z,98731.84
2022-08-02T08:19:11.271Z,98726.34
2022-08-02T08:21:37.854Z,98729.13
2022-08-02T08:24:04.762Z,98736.69
2022-08-02T08:26:31.303Z,98735.63
2022-08-02T08:28:57.805Z,98738.56
2022-08-02T08:31:24.296Z,98732.19
2022-08-02T08:33:50.795Z,98735.63
2022-08-02T08:36:17.304Z,98735.84
2022-08-02T08:38:43.837Z,98723.69
2022-08-02T08:41:10.393Z,98719.88
2022-08-02T08:43:37.176Z,98719.09
2022-08-02T08:46:03.663Z,98725.41
2022-08-02T08:48:31.136Z,98728.28
2022-08-02T08:51:02.245Z,98729.19
2022-08-02T08:53:36.705Z,98708.44
2022-08-02T08:56:03.679Z,98725.31
2022-08-02T08:58:30.216Z,98720.78
2022-08-02T09:00:56.781Z,98720.19
2022-08-02T09:03:23.322Z,98719.44
2022-08-02T09:05:49.991Z,98714.44
2022-08-02T09:08:17.115Z,98719.75
2022-08-02T09:10:44.965Z,98715.81
2022-08-02T09:13:39.256Z,98726.66
2022-08-02T09:16:11.124Z,98713.44
2022-08-02T09:18:40.430Z,98711.06
2022-08-02T09:21:10.705Z,98712.88
2022-08-02T09:23:40.669Z,98716.66
2022-08-02T09:26:08.606Z,98710.88
2022-08-02T09:28:37.552Z,98712.06
2022-08-02T09:31:09.982Z,98711.06
2022-08-02T09:33:37.478Z,98716.97
2022-08-02T09:36:08.149Z,98716.94
2022-08-02T09:38:36.010Z,98713.78
2022-08-02T09:41:02.680Z,98710.09
2022-08-02T09:44:03.560Z,98717.59
2022-08-02T09:46:28.089Z,98706.06
2022-08-02T09:48:54.510Z,98713.28
2022-08-02T09:51:32.641Z,98712.00
2022-08-02T09:54:08.428Z,98710.38
2022-08-02T09:56:55.839Z,98711.25
2022-08-02T09:59:24.908Z,98710.72
2022-08-02T10:02:01.260Z,98699.00
2022-08-02T10:04:30.507Z,98706.50
2022-08-02T10:06:59.312Z,98700.69
2022-08-02T10:09:25.821Z,98698.13
2022-08-02T10:11:52.565Z,98685.75
2022-08-02T10:14:20.559Z,98694.09
2022-08-02T10:16:47.054Z,98692.50
2022-08-02T10:19:13.560Z,98698.41
2022-08-02T10:21:52.791Z,98698.19
2022-08-02T10:24:21.706Z,98700.56
2022-08-02T10:26:48.338Z,98694.38
2022-08-02T10:29:19.129Z,98692.09
2022-08-02T10:31:53.304Z,98687.50
2022-08-02T10:34:21.886Z,98689.03
2022-08-02T10:36:48.386Z,98683.47
2022-08-02T10:39:14.911Z,98692.63
2022-08-02T10:41:41.939Z,98681.44
2022-08-02T10:44:08.496Z,98682.97
2022-08-02T10:46:51.607Z,98677.59
2022-08-02T10:49:39.590Z,98677.56
2022-08-02T10:52:07.204Z,98677.94
2022-08-02T10:54:39.261Z,98676.00
2022-08-02T10:57:16.744Z,98693.34
2022-08-02T10:59:43.661Z,98684.03
2022-08-02T11:02:10.200Z,98680.44
2022-08-02T11:04:36.542Z,98689.03
2022-08-02T11:07:09.684Z,98670.97
2022-08-02T11:09:36.487Z,98676.91
2022-08-02T11:12:14.751Z,98684.13
2022-08-02T11:14:45.515Z,98673.72
2022-08-02T11:17:16.434Z,98687.50
2022-08-02T11:20:10.804Z,98685.09
2022-08-02T11:22:37.439Z,98685.47
2022-08-02T11:26:02.755Z,98685.16
2022-08-02T11:28:25.048Z,98683.53
2022-08-02T11:30:59.255Z,98685.81
2022-08-02T11:33:33.340Z,98675.41
2022-08-02T11:36:06.984Z,98670.00
2022-08-02T11:38:33.516Z,98687.22
2022-08-02T11:41:06.084Z,98683.06
2022-08-02T11:43:33.031Z,98685.28
2022-08-02T11:46:03.276Z,98685.25
2022-08-02T11:48:33.991Z,98684.13
2022-08-02T11:51:05.040Z,98674.25
2022-08-02T11:53:34.851Z,98670.00
2022-08-02T11:56:01.332Z,98667.84
2022-08-02T11:58:27.831Z,98660.28
2022-08-02T12:00:54.587Z,98655.72
2022-08-02T12:03:21.123Z,98650.34
2022-08-02T12:05:51.852Z,98659.44
2022-08-02T12:08:36.487Z,98658.47
2022-08-02T12:11:03.738Z,98660.84
2022-08-02T12:13:44.982Z,98654.09
2022-08-02T12:16:42.384Z,98651.44
2022-08-02T12:19:23.557Z,98652.38
2022-08-02T12:22:27.547Z,98657.13
2022-08-02T12:24:55.661Z,98652.25
2022-08-02T12:27:48.171Z,98650.66
2022-08-02T12:30:27.597Z,98660.38
2022-08-02T12:32:54.485Z,98660.13
2022-08-02T12:35:26.377Z,98654.72
2022-08-02T12:37:53.561Z,98654.13
2022-08-02T12:40:32.312Z,98660.88
2022-08-02T12:43:00.379Z,98649.63
2022-08-02T12:45:40.047Z,98646.66
2022-08-02T12:48:08.466Z,98646.34
2022-08-02T12:50:37.172Z,98653.28
2022-08-02T12:53:11.460Z,98648.50
2022-08-02T12:56:01.450Z,98649.69
2022-08-02T12:58:30.600Z,98634.31
2022-08-02T13:00:58.799Z,98639.47
2022-08-02T13:04:08.959Z,98641.91
2022-08-02T13:06:39.708Z,98635.47
2022-08-02T13:08:58.678Z,98642.44
2022-08-02T13:11:25.262Z,98633.38
2022-08-02T13:13:51.821Z,98630.72
2022-08-02T13:16:18.397Z,98631.53
2022-08-02T13:18:57.463Z,98621.13
2022-08-02T13:21:40.686Z,98618.44
2022-08-02T13:24:32.765Z,98619.47
2022-08-02T13:29:25.746Z,98606.13
2022-08-02T13:31:52.316Z,98611.47
2022-08-02T13:34:18.855Z,98607.22
2022-08-02T13:36:45.353Z,98606.41
2022-08-02T13:39:12.689Z,98609.88
2022-08-02T13:41:39.179Z,98610.44
2022-08-02T13:44:10.427Z,98608.78
2022-08-02T13:46:39.746Z,98606.94
2022-08-02T13:49:17.825Z,98598.91
2022-08-02T13:51:45.848Z,98589.31
2022-08-02T13:54:12.388Z,98597.06
2022-08-02T13:56:38.908Z,98600.00
2022-08-02T13:59:54.426Z,98594.66
2022-08-02T14:01:52.745Z,98595.22
2022-08-02T14:04:19.262Z,98591.47
2022-08-02T14:06:45.792Z,98580.78
2022-08-02T14:09:16.778Z,98573.06
2022-08-02T14:11:43.971Z,98581.88
2022-08-02T14:14:16.719Z,98577.56
2022-08-02T14:16:45.068Z,98567.44
2022-08-02T14:19:15.450Z,98567.16
2022-08-02T14:21:46.285Z,98571.44
2022-08-02T14:26:41.053Z,98569.31
2022-08-02T14:29:07.574Z,98565.84
2022-08-02T14:31:34.080Z,98570.91
2022-08-02T14:34:00.593Z,98560.25
2022-08-02T14:36:28.111Z,98563.72
2022-08-02T14:38:55.386Z,98559.97
2022-08-02T14:41:22.017Z,98551.72
2022-08-02T14:44:07.971Z,98552.25
2022-08-02T14:46:36.375Z,98552.25
2022-08-02T14:49:03.906Z,98548.50
2022-08-02T14:51:33.796Z,98550.66
2022-08-02T14:54:02.812Z,98548.50
2022-08-02T14:56:30.033Z,98544.25
2022-08-02T14:58:56.540Z,98548.78
2022-08-02T15:01:26.156Z,98541.84
2022-08-02T15:03:53.159Z,98540.25
2022-08-02T15:06:19.741Z,98543.44
2022-08-02T15:08:46.237Z,98543.72
2022-08-02T15:11:12.768Z,98543.44
2022-08-02T15:13:42.743Z,98539.19
2022-08-02T15:16:09.597Z,98545.13
2022-08-02T15:18:36.109Z,98538.97
2022-08-02T15:21:07.963Z,98531.47
2022-08-02T15:23:49.184Z,98533.34
2022-08-02T15:26:15.687Z,98533.59
2022-08-02T15:28:42.212Z,98534.34
2022-08-02T15:31:08.744Z,98535.16
2022-08-02T15:33:35.281Z,98529.31
2022-08-02T15:36:01.879Z,98527.69
2022-08-02T15:38:28.416Z,98529.81
2022-08-02T15:40:54.922Z,98529.81
2022-08-02T15:43:21.718Z,98542.13
2022-08-02T15:45:48.211Z,98542.66
2022-08-02T15:48:14.777Z,98537.81
2022-08-02T15:50:41.282Z,98534.34
2022-08-02T15:53:07.809Z,98535.44
2022-08-02T15:55:52.634Z,98536.22
2022-08-02T15:58:22.616Z,98538.09
2022-08-02T16:00:49.458Z,98538.38
2022-08-02T16:03:15.967Z,98537.56
2022-08-02T16:05:42.523Z,98531.16
2022-08-02T16:08:09.046Z,98526.09
2022-08-02T16:10:35.559Z,98528.78
2022-08-02T16:13:20.768Z,98522.06
2022-08-02T16:15:47.273Z,98517.53
2022-08-02T16:18:13.813Z,98516.75
2022-08-02T16:20:40.403Z,98526.34
2022-08-02T16:23:06.904Z,98510.59
2022-08-02T16:25:33.435Z,98521.81
2022-08-02T16:28:06.818Z,98517.53
2022-08-02T16:30:34.179Z,98513.28
2022-08-02T16:33:00.681Z,98518.34
2022-08-02T16:35:28.287Z,98519.41
2022-08-02T16:37:54.896Z,98517.53
2022-08-02T16:40:21.913Z,98520.22
2022-08-02T16:42:50.190Z,98515.66
2022-08-02T16:45:20.028Z,98507.94
2022-08-02T16:47:56.276Z,98510.59
2022-08-02T16:50:28.192Z,98509.81
2022-08-02T16:52:58.626Z,98505.25
2022-08-02T16:55:25.952Z,98508.72
2022-08-02T16:57:56.818Z,98498.31
2022-08-02T17:00:23.604Z,98504.47
2022-08-02T17:02:50.098Z,98500.19
2022-08-02T17:05:16.746Z,98494.03
2022-08-02T17:08:16.055Z,98488.72
2022-08-02T17:10:30.772Z,98485.78
2022-08-02T17:12:57.510Z,98494.59
2022-08-02T17:16:15.848Z,98493.78
2022-08-02T17:18:10.806Z,98483.91
2022-08-02T17:20:37.601Z,98493.22
2022-08-02T17:23:04.132Z,98495.09
2022-08-02T17:25:32.068Z,98498.56
2022-08-02T17:27:59.115Z,98493.78
2022-08-02T17:30:26.686Z,98493.78
2022-08-02T17:32:53.837Z,98499.13
2022-08-02T17:35:22.435Z,98493.22
2022-08-02T17:37:54.861Z,98495.88
2022-08-02T17:40:26.481Z,98494.81
2022-08-02T17:42:52.982Z,98497.75
2022-08-02T17:45:25.911Z,98494.03
2022-08-02T17:48:06.178Z,98496.16
2022-08-02T17:50:34.044Z,98493.75
2022-08-02T17:53:01.034Z,98492.41
2022-08-02T17:55:28.508Z,98488.16
2022-08-02T17:57:59.299Z,98486.28
2022-08-02T18:00:36.448Z,98482.81
2022-08-02T18:03:05.411Z,98479.59
2022-08-02T18:05:39.109Z,98480.66
2022-08-02T18:08:07.394Z,98481.75
2022-08-02T18:10:34.030Z,98474.81
2022-08-02T18:13:00.612Z,98478.81
2022-08-02T18:15:29.293Z,98480.41
2022-08-02T18:17:58.976Z,98481.75
2022-08-02T18:20:25.472Z,98478.00
2022-08-02T18:22:55.519Z,98480.66
2022-08-02T18:25:37.760Z,98480.41
2022-08-02T18:28:08.921Z,98478.00
2022-08-02T18:30:35.492Z,98481.19
2022-08-02T18:33:56.939Z,98480.38
2022-08-02T18:35:48.872Z,98480.16
2022-08-02T18:38:15.394Z,98479.06
2022-08-02T18:40:42.373Z,98478.00
2022-08-02T18:43:08.870Z,98473.47
2022-08-02T18:46:04.648Z,98472.13
2022-08-02T18:48:30.026Z,98473.75
2022-08-02T18:50:56.804Z,98480.38
2022-08-02T18:53:39.182Z,98478.00
2022-08-02T18:56:07.892Z,98479.06
2022-08-02T18:58:37.162Z,98476.41
2022-08-02T19:01:05.250Z,98480.16
2022-08-02T19:03:41.497Z,98486.53
2022-08-02T19:06:16.314Z,98481.19
2022-08-02T19:08:47.295Z,98479.59
2022-08-02T19:11:35.233Z,98486.78
2022-08-02T19:14:01.982Z,98483.84
2022-08-02T19:16:36.650Z,98487.59
2022-08-02T19:19:04.948Z,98485.47
2022-08-02T19:22:17.276Z,98492.66
2022-08-02T19:24:17.959Z,98490.81
2022-08-02T19:26:51.991Z,98499.06
2022-08-02T19:29:42.063Z,98498.53
2022-08-02T19:32:39.375Z,98494.25
2022-08-02T19:34:55.938Z,98499.59
2022-08-02T19:37:22.527Z,98497.44
2022-08-02T19:39:49.033Z,98503.59
2022-08-02T19:42:16.752Z,98503.84
2022-08-02T19:44:45.622Z,98505.97
2022-08-02T19:47:12.665Z,98512.38
2022-08-02T19:49:46.088Z,98506.72
2022-08-02T19:52:21.714Z,98514.72
2022-08-02T19:54:55.595Z,98515.28
2022-08-02T19:57:22.684Z,98509.38
2022-08-02T19:59:49.730Z,98511.00
2022-08-02T20:02:16.954Z,98512.84
2022-08-02T20:04:49.820Z,98509.38
2022-08-02T20:07:24.225Z,98516.88
2022-08-02T20:10:03.562Z,98511.53
2022-08-02T20:12:35.255Z,98522.47
2022-08-02T20:15:07.650Z,98520.81
2022-08-02T20:17:41.043Z,98522.19
2022-08-02T20:20:13.959Z,98521.69
2022-08-02T20:22:58.752Z,98514.25
2022-08-02T20:25:25.549Z,98520.38
2022-08-02T20:27:55.642Z,98522.25
2022-08-02T20:30:22.136Z,98525.94
2022-08-02T20:32:57.535Z,98523.84
2022-08-02T20:35:28.773Z,98525.94
2022-08-02T20:38:01.954Z,98523.28
2022-08-02T20:40:29.211Z,98523.00
2022-08-02T20:42:55.714Z,98524.34
2022-08-02T20:45:25.171Z,98526.50
2022-08-02T20:47:54.565Z,98531.84
2022-08-02T20:50:40.278Z,98525.72
2022-08-02T20:53:07.865Z,98531.03
2022-08-02T20:55:35.766Z,98533.44
2022-08-02T20:58:04.469Z,98528.06
2022-08-02T21:00:31.659Z,98531.84
2022-08-02T21:03:01.356Z,98532.09
2022-08-02T21:05:43.907Z,98524.91
2022-08-02T21:08:16.127Z,98524.06
2022-08-02T21:10:50.416Z,98526.75
2022-08-02T21:13:24.234Z,98524.91
2022-08-02T21:15:53.305Z,98530.25
2022-08-02T21:18:27.839Z,98521.41
2022-08-02T21:21:05.425Z,98524.06
2022-08-02T21:23:36.512Z,98521.69
2022-08-02T21:26:04.564Z,98521.94
2022-08-02T21:28:35.107Z,98519.03
2022-08-02T21:31:11.008Z,98521.69
2022-08-02T21:33:57.544Z,98520.34
2022-08-02T21:36:25.076Z,98515.78
2022-08-02T21:38:58.070Z,98512.59
2022-08-02T21:41:24.577Z,98517.13
2022-08-02T21:44:06.970Z,98522.97
2022-08-02T21:46:33.504Z,98514.72
2022-08-02T21:49:01.400Z,98516.56
2022-08-02T21:51:27.949Z,98515.78
2022-08-02T21:54:17.796Z,98517.66
2022-08-02T21:56:42.278Z,98515.50
2022-08-02T21:59:15.907Z,98514.97
2022-08-02T22:01:52.945Z,98521.13
2022-08-02T22:04:20.397Z,98520.03
2022-08-02T22:06:47.057Z,98517.13
2022-08-02T22:09:17.765Z,98523.78
2022-08-02T22:12:02.665Z,98526.19
2022-08-02T22:14:29.167Z,98526.72
2022-08-02T22:16:55.822Z,98526.44
2022-08-02T22:19:22.684Z,98529.63
2022-08-02T22:21:55.256Z,98531.28
2022-08-02T22:24:30.108Z,98536.84
2022-08-02T22:26:56.871Z,98537.13
2022-08-02T22:29:23.385Z,98532.06
2022-08-02T22:31:49.912Z,98537.94
2022-08-02T22:34:36.730Z,98532.09
2022-08-02T22:37:06.002Z,98538.72
2022-08-02T22:39:34.217Z,98543.03
2022-08-02T22:42:05.729Z,98539.28
2022-08-02T22:44:34.024Z,98543.03
2022-08-02T22:47:06.834Z,98545.41
2022-08-02T22:49:37.625Z,98539.50
2022-08-02T22:52:12.165Z,98539.78
2022-08-02T22:54:40.811Z,98537.38
2022-08-02T22:57:11.472Z,98548.06
2022-08-02T22:59:40.005Z,98546.44
2022-08-02T23:02:07.418Z,98548.28
2022-08-02T23:04:33.952Z,98537.91
2022-08-02T23:07:00.536Z,98534.69
2022-08-02T23:09:27.046Z,98534.44
2022-08-02T23:11:53.556Z,98538.16
2022-08-02T23:14:20.096Z,98528.56
2022-08-02T23:17:04.897Z,98528.81
2022-08-02T23:19:49.741Z,98529.59
2022-08-02T23:22:16.791Z,98529.63
2022-08-02T23:24:43.527Z,98529.91
2022-08-02T23:27:10.036Z,98525.09
2022-08-02T23:29:36.544Z,98527.50
2022-08-02T23:32:03.144Z,98522.69
2022-08-02T23:34:29.787Z,98534.16
2022-08-02T23:36:56.325Z,98524.28
2022-08-02T23:39:22.925Z,98528.81
2022-08-02T23:41:55.030Z,98530.41
2022-08-02T23:44:23.112Z,98536.03
2022-08-02T23:46:49.649Z,98531.75
2022-08-02T23:49:16.332Z,98529.91
2022-08-02T23:51:43.166Z,98527.50
2022-08-02T23:54:10.189Z,98528.03
2022-08-02T23:56:36.961Z,98524.28
2022-08-02T23:59:03.769Z,98527.50
